San Pedro, Argentina
Current Conditions -  °F | °C
As of 3:00 PM on Wednesday 26 Nov 2014 (Local Time) from SASJ Reporting Station
Scattered Clouds Scattered Clouds  
Wind Chill: 26°   Ceiling: Unl
Heat Index: 27°   Visibility: 6mi
Dew Point: 17°   Wind: 6mph
Humidity: 57%   Direction: 90°E
Pressure: 29.94"   Gusts: NA
Location:  24.22°S, 64.87°W
Report Text: SASJ 261800Z 09005KT 9999 FEW030 SCT04026/17 Q1014
Loading
Personal Weather Stations






























Interactive Weather Map New forecast layout! Learn more

10-Day Weather Forecast

Advertisements
Track Severe Weather on mobile